createdAt,value
2023-09-06T00:01:42.766Z,100.00
2023-09-06T00:06:44.290Z,100.00
2023-09-06T00:11:45.849Z,100.00
2023-09-06T00:16:47.775Z,100.00
2023-09-06T00:21:49.361Z,100.00
2023-09-06T00:26:50.912Z,100.00
2023-09-06T00:31:52.435Z,100.00
2023-09-06T00:36:53.981Z,100.00
2023-09-06T00:41:55.445Z,100.00
2023-09-06T00:46:57.060Z,100.00
2023-09-06T00:51:58.617Z,100.00
2023-09-06T00:57:00.214Z,100.00
2023-09-06T01:02:01.796Z,100.00
2023-09-06T01:07:05.110Z,100.00
2023-09-06T01:12:06.939Z,100.00
2023-09-06T01:17:10.409Z,100.00
2023-09-06T01:22:23.391Z,100.00
2023-09-06T01:27:25.281Z,100.00
2023-09-06T01:32:26.790Z,100.00
2023-09-06T01:37:28.283Z,100.00
2023-09-06T01:42:29.718Z,100.00
2023-09-06T01:47:31.215Z,100.00
2023-09-06T01:52:32.753Z,100.00
2023-09-06T01:57:34.229Z,100.00
2023-09-06T02:02:35.830Z,100.00
2023-09-06T02:07:37.356Z,100.00
2023-09-06T02:12:39.327Z,100.00
2023-09-06T02:17:42.225Z,100.00
2023-09-06T02:22:45.404Z,100.00
2023-09-06T02:27:46.963Z,100.00
2023-09-06T02:32:52.073Z,100.00
2023-09-06T02:37:53.572Z,100.00
2023-09-06T02:42:55.031Z,100.00
2023-09-06T02:47:56.551Z,100.00
2023-09-06T02:52:58.034Z,100.00
2023-09-06T02:57:59.857Z,100.00
2023-09-06T03:03:01.503Z,100.00
2023-09-06T03:08:03.268Z,100.00
2023-09-06T03:13:06.046Z,100.00
2023-09-06T03:18:07.732Z,100.00
2023-09-06T03:23:11.359Z,100.00
2023-09-06T03:28:13.490Z,100.00
2023-09-06T03:33:15.755Z,100.00
2023-09-06T03:38:17.882Z,100.00
2023-09-06T03:43:19.514Z,100.00
2023-09-06T03:48:22.245Z,100.00
2023-09-06T03:53:24.675Z,100.00
2023-09-06T03:58:28.074Z,100.00
2023-09-06T04:03:31.309Z,100.00
2023-09-06T04:08:35.205Z,100.00
2023-09-06T04:13:37.692Z,100.00
2023-09-06T04:18:39.566Z,100.00
2023-09-06T04:23:41.178Z,100.00
2023-09-06T04:28:44.774Z,100.00
2023-09-06T04:33:49.819Z,100.00
2023-09-06T04:38:55.576Z,100.00
2023-09-06T04:43:57.904Z,100.00
2023-09-06T04:48:59.528Z,100.00
2023-09-06T04:54:01.323Z,100.00
2023-09-06T04:59:07.451Z,100.00
2023-09-06T05:04:09.385Z,100.00
2023-09-06T05:09:11.422Z,100.00
2023-09-06T05:14:13.014Z,100.00
2023-09-06T05:19:15.545Z,100.00
2023-09-06T05:24:17.432Z,100.00
2023-09-06T05:29:19.529Z,100.00
2023-09-06T05:34:21.282Z,100.00
2023-09-06T05:39:22.923Z,100.00
2023-09-06T05:44:24.502Z,100.00
2023-09-06T05:49:26.178Z,100.00
2023-09-06T05:54:27.750Z,100.00
2023-09-06T05:59:29.345Z,100.00
2023-09-06T06:04:31.037Z,100.00
2023-09-06T06:09:32.604Z,100.00
2023-09-06T06:14:34.083Z,100.00
2023-09-06T06:19:38.395Z,100.00
2023-09-06T06:24:43.117Z,100.00
2023-09-06T06:29:44.622Z,100.00
2023-09-06T06:34:46.100Z,100.00
2023-09-06T06:39:47.720Z,100.00
2023-09-06T06:44:49.174Z,100.00
2023-09-06T06:49:51.753Z,100.00
2023-09-06T06:54:53.237Z,100.00
2023-09-06T06:59:54.691Z,100.00
2023-09-06T07:04:58.022Z,100.00
2023-09-06T07:09:59.653Z,100.00
2023-09-06T07:15:01.119Z,100.00
2023-09-06T07:20:03.001Z,100.00
2023-09-06T07:25:06.416Z,100.00
2023-09-06T07:30:08.603Z,96.58
2023-09-06T07:35:10.250Z,99.92
2023-09-06T07:40:12.058Z,91.86
2023-09-06T07:45:13.534Z,89.93
2023-09-06T07:50:15.166Z,87.63
2023-09-06T07:55:16.780Z,85.96
2023-09-06T08:00:18.524Z,79.57
2023-09-06T08:05:20.043Z,77.38
2023-09-06T08:10:21.547Z,80.87
2023-09-06T08:15:23.329Z,83.25
2023-09-06T08:20:24.975Z,81.86
2023-09-06T08:25:26.782Z,78.30
2023-09-06T08:30:28.464Z,83.23
2023-09-06T08:35:30.088Z,73.64
2023-09-06T08:40:31.626Z,70.83
2023-09-06T08:45:34.567Z,72.48
2023-09-06T08:50:37.200Z,85.59
2023-09-06T08:55:38.798Z,100.00
2023-09-06T09:00:40.835Z,100.00
2023-09-06T09:05:42.463Z,100.00
2023-09-06T09:10:43.964Z,100.00
2023-09-06T09:15:46.372Z,100.00
2023-09-06T09:20:47.826Z,100.00
2023-09-06T09:25:50.555Z,100.00
2023-09-06T09:30:52.587Z,100.00
2023-09-06T09:35:54.177Z,100.00
2023-09-06T09:41:09.273Z,100.00
2023-09-06T09:46:11.072Z,92.90
2023-09-06T09:51:15.077Z,82.51
2023-09-06T09:56:16.741Z,79.83
2023-09-06T10:01:19.986Z,78.40
2023-09-06T10:06:22.371Z,81.36
2023-09-06T10:11:26.008Z,86.88
2023-09-06T10:16:27.668Z,84.86
2023-09-06T10:21:32.487Z,83.58
2023-09-06T10:26:35.715Z,81.20
2023-09-06T10:31:47.669Z,82.28
2023-09-06T10:36:56.820Z,76.89
2023-09-06T10:42:10.652Z,72.76
2023-09-06T10:47:29.138Z,64.59
2023-09-06T10:52:43.216Z,67.06
2023-09-06T10:58:00.104Z,64.26
2023-09-06T11:03:07.698Z,65.42
2023-09-06T11:08:10.842Z,63.98
2023-09-06T11:13:13.968Z,63.44
2023-09-06T11:18:15.527Z,65.68
2023-09-06T11:23:17.420Z,64.75
2023-09-06T11:28:20.210Z,64.72
2023-09-06T11:33:28.729Z,62.73
2023-09-06T11:38:33.392Z,62.91
2023-09-06T11:43:35.366Z,66.04
2023-09-06T11:48:37.062Z,64.85
2023-09-06T11:53:42.328Z,64.92
2023-09-06T11:58:44.711Z,65.28
2023-09-06T12:03:47.175Z,64.47
2023-09-06T12:08:48.854Z,61.87
2023-09-06T12:13:50.417Z,61.72
2023-09-06T12:18:52.419Z,60.72
2023-09-06T12:23:53.956Z,60.72
2023-09-06T12:28:55.437Z,61.64
2023-09-06T12:33:56.931Z,60.19
2023-09-06T12:38:58.568Z,61.45
2023-09-06T12:44:00.090Z,60.80
2023-09-06T12:49:01.649Z,59.39
2023-09-06T12:54:03.225Z,60.24
2023-09-06T12:59:04.804Z,59.54
2023-09-06T13:04:06.746Z,58.61
2023-09-06T13:09:08.301Z,57.17
2023-09-06T13:14:09.856Z,57.22
2023-09-06T13:19:13.415Z,56.22
2023-09-06T13:24:16.360Z,55.98
2023-09-06T13:29:17.843Z,56.88
2023-09-06T13:34:19.290Z,56.51
2023-09-06T13:39:20.768Z,54.95
2023-09-06T13:44:22.452Z,55.65
2023-09-06T13:49:23.900Z,56.28
2023-09-06T13:54:25.419Z,56.76
2023-09-06T13:59:26.968Z,59.38
2023-09-06T14:04:28.520Z,59.91
2023-09-06T14:09:30.070Z,61.02
2023-09-06T14:14:31.572Z,61.88
2023-09-06T14:19:33.059Z,60.38
2023-09-06T14:24:34.470Z,60.93
2023-09-06T14:29:35.943Z,61.02
2023-09-06T14:34:37.404Z,61.19
2023-09-06T14:39:38.920Z,61.06
2023-09-06T14:44:40.424Z,63.39
2023-09-06T14:49:41.979Z,61.80
2023-09-06T14:54:44.592Z,62.55
2023-09-06T14:59:46.099Z,63.52
2023-09-06T15:04:47.589Z,64.80
2023-09-06T15:09:49.152Z,65.02
2023-09-06T15:14:51.042Z,66.70
2023-09-06T15:19:52.525Z,68.50
2023-09-06T15:24:53.959Z,68.79
2023-09-06T15:29:55.452Z,67.48
2023-09-06T15:34:57.076Z,68.83
2023-09-06T15:39:58.595Z,70.70
2023-09-06T15:45:00.164Z,68.87
2023-09-06T15:50:01.665Z,69.22
2023-09-06T15:55:03.262Z,68.50
2023-09-06T16:00:16.107Z,69.01
2023-09-06T16:05:22.014Z,71.90
2023-09-06T16:10:27.018Z,74.09
2023-09-06T16:15:28.524Z,74.97
2023-09-06T16:20:29.952Z,75.15
2023-09-06T16:25:35.001Z,75.21
2023-09-06T16:30:39.981Z,74.15
2023-09-06T16:35:41.567Z,77.41
2023-09-06T16:40:43.044Z,80.62
2023-09-06T16:45:44.625Z,82.35
2023-09-06T16:50:46.157Z,85.10
2023-09-06T16:55:47.648Z,86.73
2023-09-06T17:00:49.176Z,89.72
2023-09-06T17:05:50.676Z,92.91
2023-09-06T17:10:52.224Z,94.45
2023-09-06T17:15:53.835Z,94.01
2023-09-06T17:20:55.468Z,92.34
2023-09-06T17:25:57.054Z,89.91
2023-09-06T17:30:58.560Z,88.61
2023-09-06T17:36:00.006Z,88.15
2023-09-06T17:41:01.548Z,87.13
2023-09-06T17:46:03.586Z,86.08
2023-09-06T17:51:05.161Z,85.98
2023-09-06T17:56:07.838Z,85.85
2023-09-06T18:01:10.973Z,88.00
2023-09-06T18:06:13.089Z,88.42
2023-09-06T18:11:14.665Z,89.74
2023-09-06T18:16:17.627Z,91.64
2023-09-06T18:21:19.151Z,92.42
2023-09-06T18:26:20.711Z,94.82
2023-09-06T18:31:22.441Z,96.34
2023-09-06T18:36:24.088Z,100.00
2023-09-06T18:41:25.547Z,100.00
2023-09-06T18:46:27.115Z,100.00
2023-09-06T18:51:28.632Z,100.00
2023-09-06T18:56:30.101Z,100.00
2023-09-06T19:01:31.589Z,100.00
2023-09-06T19:06:33.050Z,100.00
2023-09-06T19:11:35.598Z,100.00
2023-09-06T19:16:37.109Z,100.00
2023-09-06T19:21:38.608Z,100.00
2023-09-06T19:26:40.154Z,100.00
2023-09-06T19:31:41.661Z,100.00
2023-09-06T19:36:43.123Z,100.00
2023-09-06T19:41:44.595Z,100.00
2023-09-06T19:46:46.057Z,100.00
2023-09-06T19:51:47.541Z,100.00
2023-09-06T19:56:49.115Z,100.00
2023-09-06T20:01:50.620Z,100.00
2023-09-06T20:06:52.165Z,100.00
2023-09-06T20:11:53.669Z,100.00
2023-09-06T20:16:56.347Z,100.00
2023-09-06T20:21:57.894Z,100.00
2023-09-06T20:26:59.457Z,100.00
2023-09-06T20:32:01.174Z,100.00
2023-09-06T20:37:02.913Z,100.00
2023-09-06T20:42:04.821Z,100.00
2023-09-06T20:47:06.341Z,100.00
2023-09-06T20:52:07.901Z,100.00
2023-09-06T20:57:09.409Z,100.00
2023-09-06T21:02:10.916Z,100.00
2023-09-06T21:07:12.525Z,100.00
2023-09-06T21:12:14.059Z,100.00
2023-09-06T21:17:15.566Z,100.00
2023-09-06T21:22:17.042Z,100.00
2023-09-06T21:27:18.509Z,100.00
2023-09-06T21:32:19.982Z,100.00
2023-09-06T21:37:21.472Z,100.00
2023-09-06T21:42:23.025Z,100.00
2023-09-06T21:47:24.733Z,100.00
2023-09-06T21:52:26.304Z,100.00
2023-09-06T21:57:27.777Z,100.00
2023-09-06T22:02:29.405Z,100.00
2023-09-06T22:07:50.402Z,100.00
2023-09-06T22:13:10.301Z,100.00
2023-09-06T22:18:11.842Z,100.00
2023-09-06T22:23:13.581Z,100.00
2023-09-06T22:28:15.115Z,100.00
2023-09-06T22:33:16.686Z,100.00
2023-09-06T22:38:18.588Z,100.00
2023-09-06T22:43:20.151Z,100.00
2023-09-06T22:48:21.639Z,100.00
2023-09-06T22:53:23.173Z,100.00
2023-09-06T22:58:24.664Z,100.00
2023-09-06T23:03:26.244Z,100.00
2023-09-06T23:08:28.604Z,100.00
2023-09-06T23:13:30.342Z,100.00
2023-09-06T23:18:32.138Z,100.00
2023-09-06T23:23:34.049Z,100.00
2023-09-06T23:28:36.006Z,100.00
2023-09-06T23:33:38.126Z,100.00
2023-09-06T23:38:39.572Z,100.00
2023-09-06T23:43:41.068Z,100.00
2023-09-06T23:48:42.515Z,100.00
2023-09-06T23:53:43.994Z,100.00
2023-09-06T23:58:45.522Z,100.00
